sensor_id;sensor_type;location;lat;lon;timestamp;pressure;altitude;pressure_sealevel;temperature;humidity
4143;BME280;2085;51.052;6.958;2022-07-29T00:01:19;101131.75;;;20.18;47.04
4143;BME280;2085;51.052;6.958;2022-07-29T00:03:46;101130.06;;;20.17;46.85
4143;BME280;2085;51.052;6.958;2022-07-29T00:06:13;101125.44;;;20.19;47.25
4143;BME280;2085;51.052;6.958;2022-07-29T00:08:41;101121.66;;;20.22;47.19
4143;BME280;2085;51.052;6.958;2022-07-29T00:11:07;101118.00;;;20.23;47.03
4143;BME280;2085;51.052;6.958;2022-07-29T00:13:34;101119.81;;;20.22;47.17
4143;BME280;2085;51.052;6.958;2022-07-29T00:16:01;101118.00;;;20.23;47.25
4143;BME280;2085;51.052;6.958;2022-07-29T00:18:27;101113.66;;;20.22;46.91
4143;BME280;2085;51.052;6.958;2022-07-29T00:20:54;101107.56;;;20.20;47.14
4143;BME280;2085;51.052;6.958;2022-07-29T00:23:21;101107.84;;;20.17;47.05
4143;BME280;2085;51.052;6.958;2022-07-29T00:25:49;101097.38;;;20.14;47.11
4143;BME280;2085;51.052;6.958;2022-07-29T00:28:15;101095.94;;;20.10;46.99
4143;BME280;2085;51.052;6.958;2022-07-29T00:30:42;101103.38;;;20.06;47.34
4143;BME280;2085;51.052;6.958;2022-07-29T00:33:09;101098.16;;;20.04;47.08
4143;BME280;2085;51.052;6.958;2022-07-29T00:35:35;101097.44;;;20.02;47.24
4143;BME280;2085;51.052;6.958;2022-07-29T00:38:12;101090.50;;;20.00;47.45
4143;BME280;2085;51.052;6.958;2022-07-29T00:40:40;101089.94;;;19.96;47.59
4143;BME280;2085;51.052;6.958;2022-07-29T00:43:08;101079.63;;;19.92;47.51
4143;BME280;2085;51.052;6.958;2022-07-29T00:45:35;101076.38;;;19.88;47.41
4143;BME280;2085;51.052;6.958;2022-07-29T00:48:01;101075.63;;;19.86;47.63
4143;BME280;2085;51.052;6.958;2022-07-29T00:50:30;101078.56;;;19.83;47.79
4143;BME280;2085;51.052;6.958;2022-07-29T00:52:57;101076.16;;;19.80;47.53
4143;BME280;2085;51.052;6.958;2022-07-29T00:55:24;101070.09;;;19.78;47.58
4143;BME280;2085;51.052;6.958;2022-07-29T00:57:52;101074.84;;;19.75;47.69
4143;BME280;2085;51.052;6.958;2022-07-29T01:00:22;101072.28;;;19.73;47.61
4143;BME280;2085;51.052;6.958;2022-07-29T01:02:49;101068.31;;;19.68;47.78
4143;BME280;2085;51.052;6.958;2022-07-29T01:05:18;101062.34;;;19.64;47.99
4143;BME280;2085;51.052;6.958;2022-07-29T01:07:46;101063.47;;;19.62;47.78
4143;BME280;2085;51.052;6.958;2022-07-29T01:10:16;101066.25;;;19.60;47.78
4143;BME280;2085;51.052;6.958;2022-07-29T01:12:44;101057.53;;;19.58;47.79
4143;BME280;2085;51.052;6.958;2022-07-29T01:15:12;101053.28;;;19.55;48.23
4143;BME280;2085;51.052;6.958;2022-07-29T01:17:44;101053.53;;;19.52;48.26
4143;BME280;2085;51.052;6.958;2022-07-29T01:20:17;101054.63;;;19.50;47.84
4143;BME280;2085;51.052;6.958;2022-07-29T01:23:08;101046.16;;;19.45;48.31
4143;BME280;2085;51.052;6.958;2022-07-29T01:25:57;101050.25;;;19.38;48.17
4143;BME280;2085;51.052;6.958;2022-07-29T01:28:55;101043.72;;;19.31;48.42
4143;BME280;2085;51.052;6.958;2022-07-29T01:31:31;101051.16;;;19.27;48.51
4143;BME280;2085;51.052;6.958;2022-07-29T01:34:01;101044.22;;;19.25;48.34
4143;BME280;2085;51.052;6.958;2022-07-29T01:36:32;101041.91;;;19.20;48.37
4143;BME280;2085;51.052;6.958;2022-07-29T01:39:05;101037.22;;;19.12;48.75
4143;BME280;2085;51.052;6.958;2022-07-29T01:41:33;101032.25;;;19.08;48.59
4143;BME280;2085;51.052;6.958;2022-07-29T01:44:11;101027.97;;;19.05;48.83
4143;BME280;2085;51.052;6.958;2022-07-29T01:46:43;101029.94;;;19.03;48.64
4143;BME280;2085;51.052;6.958;2022-07-29T01:49:15;101028.25;;;19.02;48.84
4143;BME280;2085;51.052;6.958;2022-07-29T01:51:46;101025.47;;;19.04;48.82
4143;BME280;2085;51.052;6.958;2022-07-29T01:54:17;101028.25;;;19.02;48.85
4143;BME280;2085;51.052;6.958;2022-07-29T01:56:48;101031.88;;;19.01;48.97
4143;BME280;2085;51.052;6.958;2022-07-29T01:59:17;101032.84;;;19.00;48.70
4143;BME280;2085;51.052;6.958;2022-07-29T02:01:45;101032.72;;;19.02;48.96
4143;BME280;2085;51.052;6.958;2022-07-29T02:04:15;101034.44;;;19.03;48.87
4143;BME280;2085;51.052;6.958;2022-07-29T02:06:43;101027.00;;;19.06;48.62
4143;BME280;2085;51.052;6.958;2022-07-29T02:09:12;101029.44;;;19.09;48.75
4143;BME280;2085;51.052;6.958;2022-07-29T02:11:43;101022.91;;;19.13;48.67
4143;BME280;2085;51.052;6.958;2022-07-29T02:14:14;101038.41;;;19.20;48.61
4143;BME280;2085;51.052;6.958;2022-07-29T02:16:44;101030.16;;;19.23;48.92
4143;BME280;2085;51.052;6.958;2022-07-29T02:19:12;101022.88;;;19.25;48.77
4143;BME280;2085;51.052;6.958;2022-07-29T02:21:41;101017.41;;;19.26;48.82
4143;BME280;2085;51.052;6.958;2022-07-29T02:24:11;101016.56;;;19.26;48.48
4143;BME280;2085;51.052;6.958;2022-07-29T02:26:39;101028.47;;;19.22;48.76
4143;BME280;2085;51.052;6.958;2022-07-29T02:29:06;101019.72;;;19.20;48.67
4143;BME280;2085;51.052;6.958;2022-07-29T02:31:36;101025.19;;;19.18;48.68
4143;BME280;2085;51.052;6.958;2022-07-29T02:34:07;101017.31;;;19.16;48.84
4143;BME280;2085;51.052;6.958;2022-07-29T02:36:34;101020.94;;;19.15;49.02
4143;BME280;2085;51.052;6.958;2022-07-29T02:39:02;101019.38;;;19.13;48.87
4143;BME280;2085;51.052;6.958;2022-07-29T02:41:33;101031.13;;;19.10;48.96
4143;BME280;2085;51.052;6.958;2022-07-29T02:44:06;101023.50;;;19.06;49.00
4143;BME280;2085;51.052;6.958;2022-07-29T02:46:36;101027.00;;;19.06;48.93
4143;BME280;2085;51.052;6.958;2022-07-29T02:49:09;101026.31;;;19.04;49.09
4143;BME280;2085;51.052;6.958;2022-07-29T02:51:42;101024.47;;;19.05;49.12
4143;BME280;2085;51.052;6.958;2022-07-29T02:54:10;101032.25;;;19.08;48.96
4143;BME280;2085;51.052;6.958;2022-07-29T02:56:39;101041.69;;;19.12;48.99
4143;BME280;2085;51.052;6.958;2022-07-29T02:59:10;101044.25;;;19.13;48.91
4143;BME280;2085;51.052;6.958;2022-07-29T03:01:40;101059.03;;;19.17;49.24
4143;BME280;2085;51.052;6.958;2022-07-29T03:04:11;101064.97;;;19.21;49.00
4143;BME280;2085;51.052;6.958;2022-07-29T03:06:39;101062.19;;;19.23;49.22
4143;BME280;2085;51.052;6.958;2022-07-29T03:09:07;101063.66;;;19.27;49.03
4143;BME280;2085;51.052;6.958;2022-07-29T03:11:36;101063.28;;;19.31;48.90
4143;BME280;2085;51.052;6.958;2022-07-29T03:14:04;101051.47;;;19.34;48.75
4143;BME280;2085;51.052;6.958;2022-07-29T03:16:31;101053.88;;;19.37;48.89
4143;BME280;2085;51.052;6.958;2022-07-29T03:19:02;101057.31;;;19.39;48.74
4143;BME280;2085;51.052;6.958;2022-07-29T03:21:31;101068.56;;;19.42;48.92
4143;BME280;2085;51.052;6.958;2022-07-29T03:23:57;101077.44;;;19.43;48.92
4143;BME280;2085;51.052;6.958;2022-07-29T03:26:24;101086.31;;;19.43;48.99
4143;BME280;2085;51.052;6.958;2022-07-29T03:28:51;101078.19;;;19.45;48.77
4143;BME280;2085;51.052;6.958;2022-07-29T03:31:18;101070.31;;;19.43;48.87
4143;BME280;2085;51.052;6.958;2022-07-29T03:33:44;101069.41;;;19.43;49.16
4143;BME280;2085;51.052;6.958;2022-07-29T03:36:11;101075.03;;;19.40;48.86
4143;BME280;2085;51.052;6.958;2022-07-29T03:38:41;101078.78;;;19.37;48.71
4143;BME280;2085;51.052;6.958;2022-07-29T03:41:10;101070.16;;;19.34;49.15
4143;BME280;2085;51.052;6.958;2022-07-29T03:43:40;101072.09;;;19.32;49.12
4143;BME280;2085;51.052;6.958;2022-07-29T03:46:09;101074.06;;;19.30;49.39
4143;BME280;2085;51.052;6.958;2022-07-29T03:48:37;101079.41;;;19.30;49.04
4143;BME280;2085;51.052;6.958;2022-07-29T03:51:05;101070.66;;;19.28;49.03
4143;BME280;2085;51.052;6.958;2022-07-29T03:53:32;101077.00;;;19.27;49.02
4143;BME280;2085;51.052;6.958;2022-07-29T03:56:02;101073.69;;;19.23;49.40
4143;BME280;2085;51.052;6.958;2022-07-29T03:58:30;101072.13;;;19.21;49.33
4143;BME280;2085;51.052;6.958;2022-07-29T04:00:58;101066.06;;;19.18;49.26
4143;BME280;2085;51.052;6.958;2022-07-29T04:03:25;101078.69;;;19.16;49.08
4143;BME280;2085;51.052;6.958;2022-07-29T04:05:59;101084.03;;;19.16;49.54
4143;BME280;2085;51.052;6.958;2022-07-29T04:08:25;101078.69;;;19.16;49.10
4143;BME280;2085;51.052;6.958;2022-07-29T04:10:52;101084.28;;;19.13;49.31
4143;BME280;2085;51.052;6.958;2022-07-29T04:13:20;101085.94;;;19.14;49.30
4143;BME280;2085;51.052;6.958;2022-07-29T04:15:47;101087.78;;;19.14;49.22
4143;BME280;2085;51.052;6.958;2022-07-29T04:18:13;101080.88;;;19.11;49.32
4143;BME280;2085;51.052;6.958;2022-07-29T04:20:40;101075.53;;;19.11;49.27
4143;BME280;2085;51.052;6.958;2022-07-29T04:23:07;101081.97;;;19.09;49.33
4143;BME280;2085;51.052;6.958;2022-07-29T04:25:37;101083.06;;;19.06;49.43
4143;BME280;2085;51.052;6.958;2022-07-29T04:28:03;101076.25;;;19.02;49.50
4143;BME280;2085;51.052;6.958;2022-07-29T04:30:32;101082.72;;;19.00;49.36
4143;BME280;2085;51.052;6.958;2022-07-29T04:32:59;101080.25;;;18.97;49.51
4143;BME280;2085;51.052;6.958;2022-07-29T04:35:26;101077.00;;;18.93;49.61
4143;BME280;2085;51.052;6.958;2022-07-29T04:37:53;101073.72;;;18.90;49.80
4143;BME280;2085;51.052;6.958;2022-07-29T04:40:19;101081.94;;;18.87;49.56
4143;BME280;2085;51.052;6.958;2022-07-29T04:42:46;101087.44;;;18.85;49.88
4143;BME280;2085;51.052;6.958;2022-07-29T04:45:13;101074.09;;;18.85;49.80
4143;BME280;2085;51.052;6.958;2022-07-29T04:47:41;101073.34;;;18.83;49.87
4143;BME280;2085;51.052;6.958;2022-07-29T04:50:08;101073.34;;;18.83;49.84
4143;BME280;2085;51.052;6.958;2022-07-29T04:52:35;101073.34;;;18.83;49.86
4143;BME280;2085;51.052;6.958;2022-07-29T04:55:03;101077.00;;;18.82;49.97
4143;BME280;2085;51.052;6.958;2022-07-29T04:57:29;101080.50;;;18.83;49.80
4143;BME280;2085;51.052;6.958;2022-07-29T04:59:56;101080.50;;;18.83;49.75
4143;BME280;2085;51.052;6.958;2022-07-29T05:02:23;101089.25;;;18.85;49.74
4143;BME280;2085;51.052;6.958;2022-07-29T05:04:51;101086.47;;;18.86;49.72
4143;BME280;2085;51.052;6.958;2022-07-29T05:07:17;101095.19;;;18.88;49.86
4143;BME280;2085;51.052;6.958;2022-07-29T05:09:44;101095.06;;;18.90;49.77
4143;BME280;2085;51.052;6.958;2022-07-29T05:12:10;101094.94;;;18.91;50.00
4143;BME280;2085;51.052;6.958;2022-07-29T05:14:37;101101.84;;;18.94;49.69
4143;BME280;2085;51.052;6.958;2022-07-29T05:17:04;101107.09;;;18.95;49.80
4143;BME280;2085;51.052;6.958;2022-07-29T05:19:30;101105.13;;;18.97;49.73
4143;BME280;2085;51.052;6.958;2022-07-29T05:21:58;101103.19;;;18.99;49.94
4143;BME280;2085;51.052;6.958;2022-07-29T05:24:25;101107.44;;;19.02;49.85
4143;BME280;2085;51.052;6.958;2022-07-29T05:26:52;101102.84;;;19.04;49.86
4143;BME280;2085;51.052;6.958;2022-07-29T05:29:18;101104.41;;;19.06;49.65
4143;BME280;2085;51.052;6.958;2022-07-29T05:31:45;101103.19;;;19.10;49.58
4143;BME280;2085;51.052;6.958;2022-07-29T05:34:12;101110.13;;;19.13;49.82
4143;BME280;2085;51.052;6.958;2022-07-29T05:36:38;101113.28;;;19.18;49.68
4143;BME280;2085;51.052;6.958;2022-07-29T05:39:06;101108.53;;;19.22;49.57
4143;BME280;2085;51.052;6.958;2022-07-29T05:41:32;101104.75;;;19.24;49.66
4143;BME280;2085;51.052;6.958;2022-07-29T05:43:59;101116.88;;;19.28;49.80
4143;BME280;2085;51.052;6.958;2022-07-29T05:46:26;101112.28;;;19.30;49.80
4143;BME280;2085;51.052;6.958;2022-07-29T05:48:53;101113.72;;;19.34;49.47
4143;BME280;2085;51.052;6.958;2022-07-29T05:51:19;101113.47;;;19.37;49.68
4143;BME280;2085;51.052;6.958;2022-07-29T05:53:46;101117.47;;;19.43;49.58
4143;BME280;2085;51.052;6.958;2022-07-29T05:56:14;101122.13;;;19.52;49.59
4143;BME280;2085;51.052;6.958;2022-07-29T05:58:41;101128.16;;;19.65;49.76
4143;BME280;2085;51.052;6.958;2022-07-29T06:01:07;101135.63;;;19.82;49.79
4143;BME280;2085;51.052;6.958;2022-07-29T06:03:34;101143.97;;;20.00;49.49
4143;BME280;2085;51.052;6.958;2022-07-29T06:06:03;101151.19;;;20.20;49.21
4143;BME280;2085;51.052;6.958;2022-07-29T06:08:29;101153.97;;;20.30;49.17
4143;BME280;2085;51.052;6.958;2022-07-29T06:10:56;101150.78;;;20.36;49.24
4143;BME280;2085;51.052;6.958;2022-07-29T06:13:24;101156.13;;;20.36;49.33
4143;BME280;2085;51.052;6.958;2022-07-29T06:15:50;101151.03;;;20.33;49.35
4143;BME280;2085;51.052;6.958;2022-07-29T06:18:17;101148.50;;;20.31;48.96
4143;BME280;2085;51.052;6.958;2022-07-29T06:20:45;101164.53;;;20.31;49.57
4143;BME280;2085;51.052;6.958;2022-07-29T06:23:12;101168.78;;;20.34;49.58
4143;BME280;2085;51.052;6.958;2022-07-29T06:25:40;101166.81;;;20.36;49.15
4143;BME280;2085;51.052;6.958;2022-07-29T06:28:06;101170.13;;;20.39;49.52
4143;BME280;2085;51.052;6.958;2022-07-29T06:30:34;101172.53;;;20.42;49.42
4143;BME280;2085;51.052;6.958;2022-07-29T06:33:01;101174.69;;;20.48;49.49
4143;BME280;2085;51.052;6.958;2022-07-29T06:35:29;101165.28;;;20.54;49.44
4143;BME280;2085;51.052;6.958;2022-07-29T06:37:55;101180.81;;;20.60;49.07
4143;BME280;2085;51.052;6.958;2022-07-29T06:40:22;101180.69;;;20.62;49.14
4143;BME280;2085;51.052;6.958;2022-07-29T06:43:06;101185.91;;;20.63;49.41
4143;BME280;2085;51.052;6.958;2022-07-29T06:45:34;101185.91;;;20.63;49.49
4143;BME280;2085;51.052;6.958;2022-07-29T06:48:01;101186.91;;;20.62;49.23
4143;BME280;2085;51.052;6.958;2022-07-29T06:50:28;101180.81;;;20.60;49.07
4143;BME280;2085;51.052;6.958;2022-07-29T06:52:54;101177.41;;;20.58;49.05
4143;BME280;2085;51.052;6.958;2022-07-29T06:55:21;101170.63;;;20.54;49.37
4143;BME280;2085;51.052;6.958;2022-07-29T06:57:47;101170.16;;;20.49;49.23
4143;BME280;2085;51.052;6.958;2022-07-29T07:00:14;101164.63;;;20.41;49.07
4143;BME280;2085;51.052;6.958;2022-07-29T07:02:42;101162.47;;;20.35;49.29
4143;BME280;2085;51.052;6.958;2022-07-29T07:05:09;101173.56;;;20.30;49.44
4143;BME280;2085;51.052;6.958;2022-07-29T07:07:35;101177.53;;;20.25;49.34
4143;BME280;2085;51.052;6.958;2022-07-29T07:10:02;101174.28;;;20.21;49.37
4143;BME280;2085;51.052;6.958;2022-07-29T07:12:29;101180.72;;;20.19;49.47
4143;BME280;2085;51.052;6.958;2022-07-29T07:14:56;101185.59;;;20.14;49.53
4143;BME280;2085;51.052;6.958;2022-07-29T07:17:22;101186.97;;;20.08;49.37
4143;BME280;2085;51.052;6.958;2022-07-29T07:19:50;101165.22;;;20.01;49.21
4143;BME280;2085;51.052;6.958;2022-07-29T07:22:17;101165.97;;;19.92;49.62
4143;BME280;2085;51.052;6.958;2022-07-29T07:24:43;101167.69;;;19.82;49.37
4143;BME280;2085;51.052;6.958;2022-07-29T07:27:10;101173.78;;;19.73;49.64
4143;BME280;2085;51.052;6.958;2022-07-29T07:29:37;101180.25;;;19.71;49.67
4143;BME280;2085;51.052;6.958;2022-07-29T07:32:06;101190.81;;;19.72;49.60
4143;BME280;2085;51.052;6.958;2022-07-29T07:34:33;101184.25;;;19.76;49.86
4143;BME280;2085;51.052;6.958;2022-07-29T07:37:01;101184.56;;;19.83;49.65
4143;BME280;2085;51.052;6.958;2022-07-29T07:39:27;101182.38;;;19.88;49.72
4143;BME280;2085;51.052;6.958;2022-07-29T07:41:54;101183.84;;;19.92;49.90
4143;BME280;2085;51.052;6.958;2022-07-29T07:44:21;101179.34;;;19.92;49.76
4143;BME280;2085;51.052;6.958;2022-07-29T07:46:47;101172.28;;;19.91;49.49
4143;BME280;2085;51.052;6.958;2022-07-29T07:49:14;101160.16;;;19.87;49.64
4143;BME280;2085;51.052;6.958;2022-07-29T07:51:40;101161.28;;;19.85;49.60
4143;BME280;2085;51.052;6.958;2022-07-29T07:54:08;101158.72;;;19.83;49.65
4143;BME280;2085;51.052;6.958;2022-07-29T07:56:35;101171.34;;;19.81;49.71
4143;BME280;2085;51.052;6.958;2022-07-29T07:59:01;101181.06;;;19.82;49.76
4143;BME280;2085;51.052;6.958;2022-07-29T08:01:28;101190.78;;;19.83;49.91
4143;BME280;2085;51.052;6.958;2022-07-29T08:03:55;101190.50;;;19.86;50.04
4143;BME280;2085;51.052;6.958;2022-07-29T08:06:21;101176.78;;;19.91;50.38
4143;BME280;2085;51.052;6.958;2022-07-29T08:08:49;101182.50;;;19.97;50.31
4143;BME280;2085;51.052;6.958;2022-07-29T08:11:17;101182.22;;;20.00;49.96
4143;BME280;2085;51.052;6.958;2022-07-29T08:13:43;101182.97;;;20.02;49.92
4143;BME280;2085;51.052;6.958;2022-07-29T08:16:10;101170.56;;;20.01;49.83
4143;BME280;2085;51.052;6.958;2022-07-29T08:18:41;101176.03;;;20.00;50.26
4143;BME280;2085;51.052;6.958;2022-07-29T08:21:08;101164.75;;;19.96;50.13
4143;BME280;2085;51.052;6.958;2022-07-29T08:23:35;101158.81;;;19.93;50.25
4143;BME280;2085;51.052;6.958;2022-07-29T08:26:04;101166.94;;;19.91;50.30
4143;BME280;2085;51.052;6.958;2022-07-29T08:28:32;101171.44;;;19.91;50.57
4143;BME280;2085;51.052;6.958;2022-07-29T08:30:58;101172.88;;;19.95;50.34
4143;BME280;2085;51.052;6.958;2022-07-29T08:33:25;101160.00;;;20.00;50.47
4143;BME280;2085;51.052;6.958;2022-07-29T08:35:51;101162.19;;;20.06;50.52
4143;BME280;2085;51.052;6.958;2022-07-29T08:38:18;101163.50;;;20.12;50.82
4143;BME280;2085;51.052;6.958;2022-07-29T08:40:45;101160.69;;;20.13;50.56
4143;BME280;2085;51.052;6.958;2022-07-29T08:43:12;101165.22;;;20.13;50.40
4143;BME280;2085;51.052;6.958;2022-07-29T08:45:44;101159.75;;;20.03;50.45
4143;BME280;2085;51.052;6.958;2022-07-29T08:48:11;101161.09;;;19.97;50.49
4143;BME280;2085;51.052;6.958;2022-07-29T08:50:39;101160.38;;;19.95;50.77
4143;BME280;2085;51.052;6.958;2022-07-29T08:53:07;101157.69;;;19.95;50.64
4143;BME280;2085;51.052;6.958;2022-07-29T08:55:36;101160.00;;;20.00;50.96
4143;BME280;2085;51.052;6.958;2022-07-29T08:58:04;101161.69;;;20.01;50.56
4143;BME280;2085;51.052;6.958;2022-07-29T09:00:31;101150.75;;;20.04;50.72
4143;BME280;2085;51.052;6.958;2022-07-29T09:03:03;101154.03;;;20.08;51.04
4143;BME280;2085;51.052;6.958;2022-07-29T09:05:31;101152.81;;;20.12;50.78
4143;BME280;2085;51.052;6.958;2022-07-29T09:07:58;101147.78;;;20.18;50.98
4143;BME280;2085;51.052;6.958;2022-07-29T09:10:25;101152.50;;;20.26;50.91
4143;BME280;2085;51.052;6.958;2022-07-29T09:12:54;101161.34;;;20.37;51.26
4143;BME280;2085;51.052;6.958;2022-07-29T09:15:21;101164.38;;;20.44;51.16
4143;BME280;2085;51.052;6.958;2022-07-29T09:17:49;101170.91;;;20.51;51.06
4143;BME280;2085;51.052;6.958;2022-07-29T09:20:19;101170.63;;;20.54;50.80
4143;BME280;2085;51.052;6.958;2022-07-29T09:22:46;101167.84;;;20.56;51.09
4143;BME280;2085;51.052;6.958;2022-07-29T09:25:15;101156.28;;;20.55;51.07
4143;BME280;2085;51.052;6.958;2022-07-29T09:28:05;101164.03;;;20.58;51.23
4143;BME280;2085;51.052;6.958;2022-07-29T09:30:32;101167.44;;;20.60;51.42
4143;BME280;2085;51.052;6.958;2022-07-29T09:33:00;101166.19;;;20.64;51.35
4143;BME280;2085;51.052;6.958;2022-07-29T09:35:30;101167.63;;;20.68;51.17
4143;BME280;2085;51.052;6.958;2022-07-29T09:37:56;101164.84;;;20.70;51.16
4143;BME280;2085;51.052;6.958;2022-07-29T09:40:26;101170.31;;;20.68;51.23
4143;BME280;2085;51.052;6.958;2022-07-29T09:42:54;101172.41;;;20.65;51.34
4143;BME280;2085;51.052;6.958;2022-07-29T09:45:29;101171.09;;;20.59;51.22
4143;BME280;2085;51.052;6.958;2022-07-29T09:47:56;101161.03;;;20.52;51.19
4143;BME280;2085;51.052;6.958;2022-07-29T09:50:37;101159.25;;;20.41;51.43
4143;BME280;2085;51.052;6.958;2022-07-29T09:53:03;101159.19;;;20.31;51.25
4143;BME280;2085;51.052;6.958;2022-07-29T09:55:30;101160.53;;;20.26;51.34
4143;BME280;2085;51.052;6.958;2022-07-29T09:58:15;101168.28;;;20.29;51.61
4143;BME280;2085;51.052;6.958;2022-07-29T10:04:16;101174.31;;;20.53;51.54
4143;BME280;2085;51.052;6.958;2022-07-29T10:06:57;101179.47;;;20.66;51.36
4143;BME280;2085;51.052;6.958;2022-07-29T10:09:24;101175.72;;;20.78;51.40
4143;BME280;2085;51.052;6.958;2022-07-29T10:12:08;101173.00;;;20.89;51.63
4143;BME280;2085;51.052;6.958;2022-07-29T10:14:36;101172.91;;;21.00;51.36
4143;BME280;2085;51.052;6.958;2022-07-29T10:17:04;101179.88;;;21.12;51.10
4143;BME280;2085;51.052;6.958;2022-07-29T10:19:33;101178.13;;;21.22;51.27
4143;BME280;2085;51.052;6.958;2022-07-29T10:22:02;101180.00;;;21.31;51.21
4143;BME280;2085;51.052;6.958;2022-07-29T10:24:30;101181.88;;;21.41;51.76
4143;BME280;2085;51.052;6.958;2022-07-29T10:26:59;101175.81;;;21.48;51.75
4143;BME280;2085;51.052;6.958;2022-07-29T10:29:26;101175.75;;;21.59;51.40
4143;BME280;2085;51.052;6.958;2022-07-29T10:32:07;101175.91;;;21.67;51.74
4143;BME280;2085;51.052;6.958;2022-07-29T10:34:48;101175.50;;;21.72;51.72
4143;BME280;2085;51.052;6.958;2022-07-29T10:37:28;101176.34;;;21.72;51.90
4143;BME280;2085;51.052;6.958;2022-07-29T10:40:04;101171.09;;;21.71;51.80
4143;BME280;2085;51.052;6.958;2022-07-29T10:42:52;101183.38;;;21.64;51.76
4143;BME280;2085;51.052;6.958;2022-07-29T10:45:20;101176.19;;;21.64;52.06
4143;BME280;2085;51.052;6.958;2022-07-29T10:47:47;101188.75;;;21.73;52.03
4143;BME280;2085;51.052;6.958;2022-07-29T10:50:14;101186.25;;;21.81;52.13
4143;BME280;2085;51.052;6.958;2022-07-29T10:52:55;101178.94;;;21.93;52.03
4143;BME280;2085;51.052;6.958;2022-07-29T10:55:35;101172.09;;;22.10;52.17
4143;BME280;2085;51.052;6.958;2022-07-29T10:58:13;101184.25;;;22.33;51.93
4143;BME280;2085;51.052;6.958;2022-07-29T11:00:40;101174.06;;;22.56;51.74
4143;BME280;2085;51.052;6.958;2022-07-29T11:03:06;101170.69;;;22.73;52.09
4143;BME280;2085;51.052;6.958;2022-07-29T11:05:51;101170.50;;;22.84;51.55
4143;BME280;2085;51.052;6.958;2022-07-29T11:08:22;101168.78;;;22.93;51.59
4143;BME280;2085;51.052;6.958;2022-07-29T11:14:03;101162.13;;;23.43;51.34
4143;BME280;2085;51.052;6.958;2022-07-29T11:17:01;101165.19;;;23.58;51.13
4143;BME280;2085;51.052;6.958;2022-07-29T11:19:28;101151.41;;;23.71;51.38
4143;BME280;2085;51.052;6.958;2022-07-29T11:21:55;101161.44;;;23.69;50.90
4143;BME280;2085;51.052;6.958;2022-07-29T11:24:24;101168.50;;;23.70;51.03
4143;BME280;2085;51.052;6.958;2022-07-29T11:27:09;101173.22;;;23.68;50.62
4143;BME280;2085;51.052;6.958;2022-07-29T11:29:39;101175.63;;;23.61;50.89
4143;BME280;2085;51.052;6.958;2022-07-29T11:32:10;101164.75;;;23.63;51.18
4143;BME280;2085;51.052;6.958;2022-07-29T11:34:37;101160.25;;;23.81;50.83
4143;BME280;2085;51.052;6.958;2022-07-29T11:37:22;101168.50;;;23.97;50.50
4143;BME280;2085;51.052;6.958;2022-07-29T11:40:24;101158.50;;;24.07;50.46
4143;BME280;2085;51.052;6.958;2022-07-29T11:42:51;101160.72;;;24.21;50.32
4143;BME280;2085;51.052;6.958;2022-07-29T11:45:22;101154.78;;;24.35;50.51
4143;BME280;2085;51.052;6.958;2022-07-29T11:47:54;101157.31;;;24.37;50.06
4143;BME280;2085;51.052;6.958;2022-07-29T11:50:32;101162.69;;;24.37;50.45
4143;BME280;2085;51.052;6.958;2022-07-29T11:53:00;101159.16;;;24.36;50.39
4143;BME280;2085;51.052;6.958;2022-07-29T11:55:28;101155.06;;;24.32;49.90
4143;BME280;2085;51.052;6.958;2022-07-29T11:57:58;101150.88;;;24.30;49.98
4143;BME280;2085;51.052;6.958;2022-07-29T12:00:28;101155.06;;;24.32;50.30
4143;BME280;2085;51.052;6.958;2022-07-29T12:02:56;101159.84;;;24.38;49.82
4143;BME280;2085;51.052;6.958;2022-07-29T12:05:31;101159.91;;;24.47;50.15
4143;BME280;2085;51.052;6.958;2022-07-29T12:08:04;101163.97;;;24.51;49.84
4143;BME280;2085;51.052;6.958;2022-07-29T12:10:33;101165.69;;;24.52;49.60
4143;BME280;2085;51.052;6.958;2022-07-29T12:13:00;101165.34;;;24.55;49.75
4143;BME280;2085;51.052;6.958;2022-07-29T12:15:26;101169.28;;;24.60;49.89
4143;BME280;2085;51.052;6.958;2022-07-29T12:17:53;101166.97;;;24.65;49.89
4143;BME280;2085;51.052;6.958;2022-07-29T12:20:25;101159.94;;;24.72;49.30
4143;BME280;2085;51.052;6.958;2022-07-29T12:22:52;101163.84;;;24.78;49.71
4143;BME280;2085;51.052;6.958;2022-07-29T12:25:21;101161.88;;;24.80;49.20
4143;BME280;2085;51.052;6.958;2022-07-29T12:27:58;101161.69;;;24.81;49.31
4143;BME280;2085;51.052;6.958;2022-07-29T12:30:38;101161.16;;;24.78;49.34
4143;BME280;2085;51.052;6.958;2022-07-29T12:33:12;101161.69;;;24.81;49.30
4143;BME280;2085;51.052;6.958;2022-07-29T12:35:40;101156.56;;;24.88;48.90
4143;BME280;2085;51.052;6.958;2022-07-29T12:38:09;101156.13;;;25.01;49.04
4143;BME280;2085;51.052;6.958;2022-07-29T12:40:36;101148.75;;;25.03;48.75
4143;BME280;2085;51.052;6.958;2022-07-29T12:43:12;101154.63;;;24.98;48.51
4143;BME280;2085;51.052;6.958;2022-07-29T12:45:41;101151.59;;;25.01;48.69
4143;BME280;2085;51.052;6.958;2022-07-29T12:48:08;101159.56;;;25.11;48.18
4143;BME280;2085;51.052;6.958;2022-07-29T12:50:36;101156.06;;;25.18;48.15
4143;BME280;2085;51.052;6.958;2022-07-29T12:53:11;101156.75;;;25.20;47.87
4143;BME280;2085;51.052;6.958;2022-07-29T12:55:40;101150.41;;;25.29;48.15
4143;BME280;2085;51.052;6.958;2022-07-29T12:58:07;101157.03;;;25.35;47.74
4143;BME280;2085;51.052;6.958;2022-07-29T13:00:35;101153.28;;;25.36;47.55
4143;BME280;2085;51.052;6.958;2022-07-29T13:03:01;101138.00;;;25.45;47.41
4143;BME280;2085;51.052;6.958;2022-07-29T13:05:42;101139.91;;;25.52;47.25
4143;BME280;2085;51.052;6.958;2022-07-29T13:08:10;101147.53;;;25.57;47.45
4143;BME280;2085;51.052;6.958;2022-07-29T13:10:37;101140.59;;;25.54;47.02
4143;BME280;2085;51.052;6.958;2022-07-29T13:13:05;101134.50;;;25.52;47.02
4143;BME280;2085;51.052;6.958;2022-07-29T13:15:35;101136.34;;;25.52;46.97
4143;BME280;2085;51.052;6.958;2022-07-29T13:18:03;101144.44;;;25.52;47.31
4143;BME280;2085;51.052;6.958;2022-07-29T13:20:30;101144.44;;;25.52;46.89
4143;BME280;2085;51.052;6.958;2022-07-29T13:22:58;101144.84;;;25.57;47.19
4143;BME280;2085;51.052;6.958;2022-07-29T13:25:27;101143.16;;;25.64;46.71
4143;BME280;2085;51.052;6.958;2022-07-29T13:27:54;101147.72;;;25.71;46.79